createdAt,value
2022-07-29T00:02:04.303Z,1.83
2022-07-29T00:04:32.152Z,1.30
2022-07-29T00:06:59.919Z,1.88
2022-07-29T00:09:27.653Z,1.40
2022-07-29T00:11:57.030Z,1.42
2022-07-29T00:14:26.360Z,1.70
2022-07-29T00:16:54.515Z,1.63
2022-07-29T00:19:22.328Z,1.80
2022-07-29T00:21:50.980Z,1.85
2022-07-29T00:24:19.104Z,1.40
2022-07-29T00:26:46.932Z,1.70
2022-07-29T00:29:33.746Z,1.93
2022-07-29T00:32:03.698Z,1.73
2022-07-29T00:34:54.396Z,1.30
2022-07-29T00:37:22.058Z,1.35
2022-07-29T00:39:50.426Z,1.80
2022-07-29T00:42:18.784Z,1.40
2022-07-29T00:44:46.722Z,1.48
2022-07-29T00:47:16.011Z,1.70
2022-07-29T00:49:44.578Z,1.70
2022-07-29T00:52:17.093Z,1.77
2022-07-29T00:54:45.224Z,2.17
2022-07-29T00:57:14.153Z,1.60
2022-07-29T00:59:41.933Z,1.57
2022-07-29T01:02:09.756Z,1.58
2022-07-29T01:04:39.529Z,1.40
2022-07-29T01:07:08.015Z,1.50
2022-07-29T01:09:46.342Z,1.67
2022-07-29T01:12:17.227Z,1.85
2022-07-29T01:14:46.529Z,1.63
2022-07-29T01:17:19.859Z,1.33
2022-07-29T01:19:54.779Z,1.17
2022-07-29T01:22:37.292Z,1.88
2022-07-29T01:25:19.536Z,1.63
2022-07-29T01:28:02.924Z,1.73
2022-07-29T01:30:34.407Z,1.77
2022-07-29T01:33:05.140Z,1.77
2022-07-29T01:35:38.006Z,1.98
2022-07-29T01:38:11.460Z,2.50
2022-07-29T01:40:45.193Z,2.33
2022-07-29T01:43:18.488Z,1.70
2022-07-29T01:45:58.739Z,2.07
2022-07-29T01:48:34.016Z,2.13
2022-07-29T01:51:07.873Z,2.60
2022-07-29T01:53:39.800Z,1.60
2022-07-29T01:56:11.028Z,1.70
2022-07-29T01:58:42.480Z,1.80
2022-07-29T02:01:14.566Z,1.90
2022-07-29T02:03:47.058Z,2.22
2022-07-29T02:06:19.420Z,2.08
2022-07-29T02:08:49.128Z,2.25
2022-07-29T02:11:17.135Z,2.13
2022-07-29T02:13:46.317Z,1.90
2022-07-29T02:16:17.472Z,2.25
2022-07-29T02:18:47.641Z,1.97
2022-07-29T02:21:20.885Z,2.25
2022-07-29T02:23:51.363Z,2.30
2022-07-29T02:26:21.418Z,1.93
2022-07-29T02:28:50.905Z,2.42
2022-07-29T02:31:24.033Z,1.87
2022-07-29T02:33:53.839Z,1.77
2022-07-29T02:36:24.376Z,2.20
2022-07-29T02:38:53.102Z,1.80
2022-07-29T02:41:25.021Z,1.63
2022-07-29T02:43:58.087Z,1.92
2022-07-29T02:46:33.291Z,1.80
2022-07-29T02:49:06.191Z,2.20
2022-07-29T02:51:45.549Z,1.83
2022-07-29T02:54:21.271Z,1.63
2022-07-29T02:56:53.579Z,1.53
2022-07-29T02:59:27.003Z,1.70
2022-07-29T03:01:57.637Z,1.80
2022-07-29T03:04:27.660Z,2.10
2022-07-29T03:06:55.834Z,2.07
2022-07-29T03:09:25.168Z,2.43
2022-07-29T03:11:55.344Z,1.80
2022-07-29T03:14:23.975Z,2.10
2022-07-29T03:16:52.734Z,2.07
2022-07-29T03:19:22.462Z,2.43
2022-07-29T03:21:50.259Z,2.10
2022-07-29T03:24:28.941Z,1.67
2022-07-29T03:26:57.344Z,1.97
2022-07-29T03:29:25.153Z,2.53
2022-07-29T03:32:02.642Z,2.33
2022-07-29T03:34:32.759Z,1.93
2022-07-29T03:37:00.490Z,2.30
2022-07-29T03:39:33.447Z,2.23
2022-07-29T03:42:03.099Z,2.30
2022-07-29T03:44:32.949Z,1.80
2022-07-29T03:47:03.093Z,2.00
2022-07-29T03:49:34.641Z,2.80
2022-07-29T03:52:02.611Z,2.57
2022-07-29T03:54:30.322Z,2.23
2022-07-29T03:57:01.444Z,2.40
2022-07-29T03:59:29.726Z,2.13
2022-07-29T04:01:59.205Z,2.30
2022-07-29T04:04:27.542Z,2.47
2022-07-29T04:06:57.875Z,2.00
2022-07-29T04:09:25.630Z,2.20
2022-07-29T04:12:03.450Z,2.10
2022-07-29T04:14:33.008Z,2.30
2022-07-29T04:17:00.772Z,2.10
2022-07-29T04:19:28.624Z,2.10
2022-07-29T04:21:57.811Z,3.10
2022-07-29T04:24:25.681Z,2.60
2022-07-29T04:26:53.766Z,1.93
2022-07-29T04:29:21.642Z,1.90
2022-07-29T04:31:49.418Z,2.10
2022-07-29T04:34:17.496Z,2.27
2022-07-29T04:36:45.734Z,2.43
2022-07-29T04:39:19.300Z,2.30
2022-07-29T04:41:51.126Z,2.30
2022-07-29T04:44:20.397Z,2.43
2022-07-29T04:46:48.330Z,2.93
2022-07-29T04:49:16.173Z,2.70
2022-07-29T04:51:43.893Z,4.20
2022-07-29T04:54:11.674Z,5.73
2022-07-29T04:56:40.910Z,6.20
2022-07-29T04:59:08.720Z,8.13
2022-07-29T05:01:36.529Z,9.13
2022-07-29T05:04:04.374Z,8.87
2022-07-29T05:06:32.043Z,9.97
2022-07-29T05:09:00.215Z,10.37
2022-07-29T05:11:30.586Z,11.50
2022-07-29T05:13:59.856Z,11.50
2022-07-29T05:16:28.267Z,9.90
2022-07-29T05:18:55.942Z,9.60
2022-07-29T05:21:23.808Z,9.00
2022-07-29T05:23:51.595Z,8.43
2022-07-29T05:26:19.259Z,7.27
2022-07-29T05:28:46.948Z,7.13
2022-07-29T05:31:16.670Z,5.97
2022-07-29T05:33:44.642Z,4.93
2022-07-29T05:36:12.692Z,3.60
2022-07-29T05:38:40.544Z,2.90
2022-07-29T05:41:08.462Z,3.20
2022-07-29T05:43:36.212Z,3.00
2022-07-29T05:46:04.136Z,2.57
2022-07-29T05:48:33.511Z,2.70
2022-07-29T05:51:01.623Z,2.50
2022-07-29T05:53:29.691Z,3.17
2022-07-29T05:55:57.503Z,3.20
2022-07-29T05:58:25.196Z,3.10
2022-07-29T06:00:53.779Z,2.57
2022-07-29T06:03:21.546Z,3.17
2022-07-29T06:05:50.590Z,2.20
2022-07-29T06:08:18.704Z,3.30
2022-07-29T06:10:46.503Z,3.10
2022-07-29T06:13:16.755Z,2.77
2022-07-29T06:15:45.162Z,3.00
2022-07-29T06:18:14.385Z,4.87
2022-07-29T06:20:42.054Z,3.72
2022-07-29T06:23:11.228Z,3.20
2022-07-29T06:25:40.352Z,3.50
2022-07-29T06:28:08.135Z,3.03
2022-07-29T06:30:35.938Z,2.72
2022-07-29T06:33:03.988Z,2.88
2022-07-29T06:35:41.413Z,2.80
2022-07-29T06:38:31.762Z,2.72
2022-07-29T06:41:03.653Z,3.17
2022-07-29T06:43:34.857Z,3.28
2022-07-29T06:46:04.375Z,2.47
2022-07-29T06:48:32.329Z,3.33
2022-07-29T06:51:00.915Z,2.90
2022-07-29T06:53:30.449Z,4.03
2022-07-29T06:55:59.090Z,2.90
2022-07-29T06:58:26.908Z,2.83
2022-07-29T07:00:54.866Z,2.58
2022-07-29T07:03:22.721Z,2.78
2022-07-29T07:05:50.977Z,2.80
2022-07-29T07:08:18.986Z,3.35
2022-07-29T07:10:48.702Z,3.08
2022-07-29T07:13:18.185Z,3.38
2022-07-29T07:15:46.444Z,3.13
2022-07-29T07:18:14.168Z,2.97
2022-07-29T07:20:41.955Z,2.85
2022-07-29T07:23:09.743Z,2.80
2022-07-29T07:25:37.525Z,2.38
2022-07-29T07:28:07.960Z,2.53
2022-07-29T07:30:35.714Z,3.08
2022-07-29T07:33:03.549Z,2.92
2022-07-29T07:35:31.309Z,2.95
2022-07-29T07:37:59.247Z,3.28
2022-07-29T07:40:27.264Z,3.10
2022-07-29T07:42:55.249Z,2.60
2022-07-29T07:45:24.624Z,3.00
2022-07-29T07:47:52.320Z,3.00
2022-07-29T07:50:20.034Z,2.90
2022-07-29T07:52:49.709Z,2.72
2022-07-29T07:55:18.214Z,2.90
2022-07-29T07:57:46.447Z,3.10
2022-07-29T08:00:16.705Z,3.00
2022-07-29T08:02:46.411Z,3.05
2022-07-29T08:05:17.828Z,2.67
2022-07-29T08:07:46.720Z,3.15
2022-07-29T08:10:15.069Z,2.85
2022-07-29T08:12:43.832Z,2.90
2022-07-29T08:15:11.733Z,3.15
2022-07-29T08:17:39.463Z,3.47
2022-07-29T08:20:09.175Z,3.00
2022-07-29T08:22:36.846Z,3.22
2022-07-29T08:25:04.961Z,3.10
2022-07-29T08:27:43.363Z,3.28
2022-07-29T08:30:12.130Z,3.78
2022-07-29T08:32:56.141Z,4.07
2022-07-29T08:35:26.511Z,3.35
2022-07-29T08:37:55.088Z,3.63
2022-07-29T08:40:32.099Z,3.80
2022-07-29T08:43:00.766Z,3.20
2022-07-29T08:45:31.486Z,3.33
2022-07-29T08:47:59.298Z,3.05
2022-07-29T08:50:28.572Z,3.60
2022-07-29T08:52:59.917Z,3.13
2022-07-29T08:55:28.995Z,3.90
2022-07-29T08:57:57.637Z,3.67
2022-07-29T09:00:27.282Z,3.40
2022-07-29T09:03:00.249Z,3.38
2022-07-29T09:05:30.343Z,3.20
2022-07-29T09:07:58.308Z,3.63
2022-07-29T09:10:26.382Z,3.70
2022-07-29T09:12:54.338Z,3.10
2022-07-29T09:15:22.132Z,3.00
2022-07-29T09:17:51.416Z,3.55
2022-07-29T09:20:21.262Z,3.55
2022-07-29T09:22:51.866Z,3.63
2022-07-29T09:25:34.519Z,3.83
2022-07-29T09:28:08.875Z,3.22
2022-07-29T09:30:36.965Z,3.70
2022-07-29T09:33:05.856Z,3.60
2022-07-29T09:35:33.693Z,3.28
2022-07-29T09:38:12.589Z,3.97
2022-07-29T09:40:40.693Z,3.80
2022-07-29T09:43:13.140Z,3.38
2022-07-29T09:45:41.349Z,3.22
2022-07-29T09:48:16.991Z,3.75
2022-07-29T09:50:47.807Z,3.95
2022-07-29T09:53:33.357Z,4.07
2022-07-29T09:56:01.293Z,3.45
2022-07-29T09:58:29.098Z,3.42
2022-07-29T10:00:59.282Z,3.97
2022-07-29T10:03:27.558Z,3.38
2022-07-29T10:06:10.006Z,3.13
2022-07-29T10:08:39.429Z,3.67
2022-07-29T10:11:14.151Z,3.17
2022-07-29T10:13:43.259Z,2.85
2022-07-29T10:16:11.149Z,3.50
2022-07-29T10:18:40.912Z,3.50
2022-07-29T10:21:09.150Z,3.58
2022-07-29T10:23:46.503Z,3.63
2022-07-29T10:26:18.498Z,3.45
2022-07-29T10:28:46.435Z,3.20
2022-07-29T10:31:23.665Z,3.55
2022-07-29T10:34:06.555Z,3.80
2022-07-29T10:36:55.428Z,4.43
2022-07-29T10:39:44.536Z,3.50
2022-07-29T10:42:33.423Z,3.15
2022-07-29T10:45:04.395Z,3.80
2022-07-29T10:47:32.739Z,3.83
2022-07-29T10:50:05.156Z,3.70
2022-07-29T10:52:55.572Z,3.20
2022-07-29T10:55:34.432Z,3.30
2022-07-29T10:58:19.436Z,3.45
2022-07-29T11:00:49.449Z,3.45
2022-07-29T11:03:50.286Z,3.75
2022-07-29T11:06:26.301Z,3.25
2022-07-29T11:09:17.402Z,3.33
2022-07-29T11:12:00.391Z,3.40
2022-07-29T11:15:01.422Z,3.53
2022-07-29T11:17:47.078Z,3.53
2022-07-29T11:20:34.331Z,3.10
2022-07-29T11:23:20.070Z,3.33
2022-07-29T11:26:18.676Z,3.30
2022-07-29T11:28:53.513Z,3.00
2022-07-29T11:31:36.483Z,3.70
2022-07-29T11:34:22.606Z,3.58
2022-07-29T11:37:28.096Z,3.75
2022-07-29T11:40:14.503Z,3.47
2022-07-29T11:42:52.192Z,3.55
2022-07-29T11:48:29.466Z,3.15
2022-07-29T11:51:01.234Z,3.38
2022-07-29T11:53:32.815Z,3.60
2022-07-29T11:56:02.780Z,3.17
2022-07-29T11:58:31.834Z,2.97
2022-07-29T12:01:04.494Z,3.40
2022-07-29T12:03:36.693Z,3.17
2022-07-29T12:06:15.155Z,3.25
2022-07-29T12:07:02.021Z,4.07
2022-07-29T12:08:45.021Z,3.88
2022-07-29T12:11:21.846Z,3.42
2022-07-29T12:13:50.432Z,3.70
2022-07-29T12:16:25.777Z,3.10
2022-07-29T12:18:59.711Z,3.35
2022-07-29T12:21:28.744Z,3.55
2022-07-29T12:24:03.360Z,3.53
2022-07-29T12:26:35.025Z,3.67
2022-07-29T12:29:04.242Z,3.90
2022-07-29T12:31:43.359Z,3.88
2022-07-29T12:34:14.941Z,3.72
2022-07-29T12:36:43.780Z,3.78
2022-07-29T12:39:13.405Z,3.15
2022-07-29T12:41:41.189Z,8.65
2022-07-29T12:44:09.094Z,4.32
2022-07-29T12:46:36.874Z,4.30
2022-07-29T12:49:05.361Z,4.70
2022-07-29T12:51:37.378Z,4.65
2022-07-29T12:54:07.909Z,3.85
2022-07-29T12:56:44.903Z,4.10
2022-07-29T12:59:15.123Z,3.83
2022-07-29T13:01:42.919Z,3.70
2022-07-29T13:04:10.810Z,4.35
2022-07-29T13:06:42.639Z,3.70
2022-07-29T13:09:16.626Z,3.38
2022-07-29T13:11:48.653Z,3.50
2022-07-29T13:14:32.689Z,3.58
2022-07-29T13:17:06.725Z,3.30
2022-07-29T13:19:41.166Z,3.63
2022-07-29T13:22:10.533Z,3.78
2022-07-29T13:24:48.265Z,3.40
2022-07-29T13:27:16.606Z,4.00
2022-07-29T13:29:44.356Z,3.90
2022-07-29T13:32:14.060Z,3.20
2022-07-29T13:34:42.157Z,3.42
2022-07-29T13:37:11.242Z,3.35
2022-07-29T13:39:39.262Z,3.92
2022-07-29T13:42:10.954Z,3.75
2022-07-29T13:44:39.050Z,3.85
2022-07-29T13:47:07.219Z,2.92
2022-07-29T13:49:34.935Z,3.58
2022-07-29T13:52:02.657Z,3.25
2022-07-29T13:54:31.752Z,3.40
2022-07-29T13:56:59.473Z,2.92
2022-07-29T13:59:27.213Z,3.28
2022-07-29T14:01:55.154Z,3.20
2022-07-29T14:04:24.226Z,3.13
2022-07-29T14:06:52.256Z,3.17
2022-07-29T14:09:20.002Z,3.35
2022-07-29T14:11:51.085Z,3.67
2022-07-29T14:14:18.855Z,3.40
2022-07-29T14:16:47.800Z,3.28
2022-07-29T14:19:19.768Z,3.20
2022-07-29T14:21:47.446Z,2.90
2022-07-29T14:24:17.850Z,3.13
2022-07-29T14:26:50.950Z,3.00
2022-07-29T14:29:18.752Z,3.20
2022-07-29T14:31:46.493Z,3.45
2022-07-29T14:34:16.544Z,2.95
2022-07-29T14:36:44.637Z,4.18
2022-07-29T14:39:12.854Z,3.20
2022-07-29T14:41:40.681Z,3.15
2022-07-29T14:44:09.775Z,2.70
2022-07-29T14:46:37.526Z,3.20
2022-07-29T14:49:05.384Z,7.47
2022-07-29T14:51:34.958Z,3.83
2022-07-29T14:54:02.859Z,2.67
2022-07-29T14:56:46.771Z,2.85
2022-07-29T14:59:16.159Z,2.70
2022-07-29T15:01:44.122Z,2.80
2022-07-29T15:04:11.836Z,2.95
2022-07-29T15:06:39.782Z,3.42
2022-07-29T15:09:07.722Z,3.20
2022-07-29T15:11:37.015Z,3.05
2022-07-29T15:14:06.669Z,3.20
2022-07-29T15:16:37.957Z,2.67
2022-07-29T15:19:06.011Z,2.95
2022-07-29T15:21:33.865Z,3.47
2022-07-29T15:24:01.622Z,3.22
2022-07-29T15:26:29.386Z,3.13
2022-07-29T15:28:57.514Z,3.53
2022-07-29T15:31:25.364Z,4.45
2022-07-29T15:33:59.442Z,3.97
2022-07-29T15:36:50.722Z,3.67
2022-07-29T15:39:16.709Z,3.28
2022-07-29T15:41:44.429Z,3.33
2022-07-29T15:44:12.111Z,3.00
2022-07-29T15:46:57.513Z,3.42
2022-07-29T15:49:48.725Z,3.03
2022-07-29T15:52:18.907Z,3.20
2022-07-29T15:54:47.160Z,3.58
2022-07-29T15:57:15.152Z,3.50
2022-07-29T15:59:42.833Z,4.15
2022-07-29T16:02:31.690Z,3.00
2022-07-29T16:05:00.931Z,3.10
2022-07-29T16:07:31.418Z,2.85
2022-07-29T16:10:00.513Z,3.40
2022-07-29T16:12:28.330Z,3.55
2022-07-29T16:14:59.011Z,2.67
2022-07-29T16:17:27.646Z,3.03
2022-07-29T16:19:55.486Z,3.15
2022-07-29T16:22:24.549Z,3.45
2022-07-29T16:24:52.468Z,3.47
2022-07-29T16:27:35.537Z,2.72
2022-07-29T16:30:20.763Z,3.03
2022-07-29T16:32:48.513Z,2.78
2022-07-29T16:35:16.348Z,2.92
2022-07-29T16:37:45.426Z,2.83
2022-07-29T16:40:13.658Z,3.33
2022-07-29T16:42:46.935Z,2.85
2022-07-29T16:45:15.415Z,3.80
2022-07-29T16:47:43.126Z,3.38
2022-07-29T16:50:11.111Z,3.42
2022-07-29T16:52:39.999Z,3.60
2022-07-29T16:55:09.693Z,3.58
2022-07-29T16:57:37.818Z,3.92
2022-07-29T17:00:07.683Z,3.30
2022-07-29T17:02:35.356Z,3.75
2022-07-29T17:05:03.076Z,3.13
2022-07-29T17:07:30.934Z,3.70
2022-07-29T17:10:03.614Z,3.25
2022-07-29T17:12:33.249Z,3.47
2022-07-29T17:15:01.366Z,4.00
2022-07-29T17:17:39.555Z,2.95
2022-07-29T17:20:17.590Z,3.05
2022-07-29T17:22:45.522Z,3.40
2022-07-29T17:25:20.645Z,3.00
2022-07-29T17:27:51.416Z,3.13
2022-07-29T17:30:19.725Z,2.75
2022-07-29T17:32:47.416Z,3.75
2022-07-29T17:35:32.661Z,3.47
2022-07-29T17:38:00.389Z,4.30
2022-07-29T17:40:28.080Z,3.92
2022-07-29T17:42:57.404Z,3.78
2022-07-29T17:45:25.111Z,4.72
2022-07-29T17:47:52.791Z,3.88
2022-07-29T17:50:20.544Z,3.05
2022-07-29T17:52:48.243Z,3.72
2022-07-29T17:55:15.883Z,2.83
2022-07-29T17:57:43.548Z,2.85
2022-07-29T18:00:13.718Z,3.47
2022-07-29T18:02:41.487Z,3.75
2022-07-29T18:05:09.589Z,8.50
2022-07-29T18:07:37.365Z,9.57
2022-07-29T18:10:05.920Z,6.10
2022-07-29T18:12:33.673Z,4.90
2022-07-29T18:15:01.544Z,3.63
2022-07-29T18:17:34.611Z,4.78
2022-07-29T18:20:18.335Z,4.35
2022-07-29T18:22:46.003Z,3.70
2022-07-29T18:25:13.768Z,4.47
2022-07-29T18:27:41.515Z,4.47
2022-07-29T18:30:10.277Z,4.00
2022-07-29T18:32:39.358Z,4.07
2022-07-29T18:35:07.718Z,4.63
2022-07-29T18:38:01.866Z,3.65
2022-07-29T18:40:25.742Z,3.17
2022-07-29T18:42:53.440Z,3.10
2022-07-29T18:45:21.230Z,3.10
2022-07-29T18:47:50.430Z,3.35
2022-07-29T18:50:19.318Z,3.35
2022-07-29T18:52:47.372Z,3.50
2022-07-29T18:55:15.126Z,3.53
2022-07-29T18:57:55.014Z,3.67
2022-07-29T19:00:24.934Z,3.97
2022-07-29T19:02:54.402Z,4.03
2022-07-29T19:05:23.005Z,3.78
2022-07-29T19:07:50.784Z,4.05
2022-07-29T19:10:18.568Z,4.00
2022-07-29T19:12:46.333Z,3.47
2022-07-29T19:15:20.334Z,3.90
2022-07-29T19:17:48.703Z,3.45
2022-07-29T19:20:18.008Z,4.15
2022-07-29T19:22:45.994Z,3.17
2022-07-29T19:25:13.794Z,3.58
2022-07-29T19:27:43.021Z,3.08
2022-07-29T19:30:11.406Z,3.90
2022-07-29T19:32:39.162Z,3.25
2022-07-29T19:35:25.595Z,3.45
2022-07-29T19:37:55.922Z,3.50
2022-07-29T19:40:23.667Z,3.65
2022-07-29T19:42:52.791Z,3.25
2022-07-29T19:45:21.138Z,3.30
2022-07-29T19:47:49.364Z,3.40
2022-07-29T19:50:18.041Z,4.05
2022-07-29T19:52:47.097Z,4.35
2022-07-29T19:55:16.871Z,3.90
2022-07-29T19:57:47.432Z,3.67
2022-07-29T20:00:16.163Z,3.20
2022-07-29T20:02:44.334Z,3.28
2022-07-29T20:05:12.766Z,3.22
2022-07-29T20:07:41.053Z,3.30
2022-07-29T20:10:10.523Z,3.33
2022-07-29T20:12:42.521Z,3.60
2022-07-29T20:15:14.761Z,3.33
2022-07-29T20:17:44.467Z,3.33
2022-07-29T20:20:12.488Z,3.28
2022-07-29T20:22:40.281Z,3.60
2022-07-29T20:25:09.710Z,3.63
2022-07-29T20:27:40.379Z,3.58
2022-07-29T20:30:08.913Z,3.75
2022-07-29T20:32:37.258Z,3.45
2022-07-29T20:35:05.442Z,3.28
2022-07-29T20:37:33.307Z,3.72
2022-07-29T20:40:19.327Z,3.30
2022-07-29T20:42:48.623Z,3.22
2022-07-29T20:45:16.349Z,3.40
2022-07-29T20:47:44.289Z,3.13
2022-07-29T20:50:12.005Z,3.53
2022-07-29T20:52:41.072Z,3.17
2022-07-29T20:55:09.919Z,3.20
2022-07-29T20:57:39.361Z,3.38
2022-07-29T21:00:10.405Z,3.00
2022-07-29T21:02:38.303Z,3.30
2022-07-29T21:05:07.180Z,3.30
2022-07-29T21:07:34.955Z,3.53
2022-07-29T21:10:02.688Z,3.22
2022-07-29T21:12:30.702Z,4.55
2022-07-29T21:14:58.738Z,3.95
2022-07-29T21:17:27.841Z,3.13
2022-07-29T21:19:55.505Z,3.65
2022-07-29T21:22:23.326Z,3.33
2022-07-29T21:24:51.037Z,3.38
2022-07-29T21:27:38.420Z,3.40
2022-07-29T21:30:07.565Z,3.25
2022-07-29T21:32:36.719Z,3.40
2022-07-29T21:35:11.310Z,3.20
2022-07-29T21:37:50.188Z,3.40
2022-07-29T21:40:17.864Z,3.10
2022-07-29T21:42:45.620Z,3.38
2022-07-29T21:45:14.328Z,2.90
2022-07-29T21:47:43.355Z,2.97
2022-07-29T21:50:11.207Z,3.05
2022-07-29T21:52:38.964Z,3.80
2022-07-29T21:55:10.591Z,3.40
2022-07-29T21:57:39.338Z,3.50
2022-07-29T22:00:11.351Z,3.22
2022-07-29T22:02:39.008Z,3.50
2022-07-29T22:05:08.778Z,3.97
2022-07-29T22:07:54.259Z,3.20
2022-07-29T22:10:23.481Z,3.47
2022-07-29T22:12:53.007Z,3.10
2022-07-29T22:15:20.764Z,3.78
2022-07-29T22:17:48.981Z,3.33
2022-07-29T22:20:18.176Z,3.10
2022-07-29T22:22:46.664Z,3.72
2022-07-29T22:25:14.382Z,3.28
2022-07-29T22:27:42.182Z,2.88
2022-07-29T22:30:10.861Z,3.13
2022-07-29T22:32:38.729Z,3.85
2022-07-29T22:35:07.547Z,3.65
2022-07-29T22:37:36.627Z,3.72
2022-07-29T22:40:06.494Z,3.47
2022-07-29T22:42:34.627Z,3.15
2022-07-29T22:45:02.567Z,3.58
2022-07-29T22:47:46.595Z,3.47
2022-07-29T22:50:16.847Z,3.90
2022-07-29T22:52:46.218Z,3.17
2022-07-29T22:55:14.193Z,3.80
2022-07-29T22:57:42.069Z,3.40
2022-07-29T23:00:11.674Z,3.60
2022-07-29T23:02:40.339Z,3.83
2022-07-29T23:05:10.176Z,4.15
2022-07-29T23:07:38.130Z,3.80
2022-07-29T23:10:08.256Z,3.78
2022-07-29T23:12:36.113Z,3.97
2022-07-29T23:15:04.423Z,4.13
2022-07-29T23:17:36.045Z,3.83
2022-07-29T23:20:06.344Z,3.80
2022-07-29T23:22:34.117Z,3.90
2022-07-29T23:25:01.873Z,4.28
2022-07-29T23:27:31.083Z,3.60
2022-07-29T23:29:58.829Z,3.75
2022-07-29T23:32:26.641Z,2.97
2022-07-29T23:34:54.370Z,3.55
2022-07-29T23:37:22.023Z,3.58
2022-07-29T23:39:49.694Z,3.75
2022-07-29T23:42:19.227Z,3.75
2022-07-29T23:44:48.266Z,3.88
2022-07-29T23:47:15.952Z,3.38
2022-07-29T23:49:43.676Z,3.78
2022-07-29T23:52:11.451Z,3.45
2022-07-29T23:54:39.119Z,3.58
2022-07-29T23:57:06.797Z,3.30
2022-07-29T23:59:34.501Z,3.45
